Pacific - South Coast: Past 24 Hour Conditions

 

Bella Bella Airport

03:00 AM PDT 23 April 2014
This table is a summary of hourly weather conditions for the past 24 hours.
Date / Time
(PDT)
Wind(knots) Conditions Visibility(km) Pressure(kPa) Air tempC) Relative humidity(%) Dew pointC)
23 April 2014
3:00 calm Mostly Cloudy 16 101.0 1 97 1
2:00 W 2 Clear 16 101.0 1 97 1
1:00 calm Mainly Clear 16 101.0 2 96 1
0:00 NW 2 Partly Cloudy 16 100.9 2 92 1
22 April 2014
23:00 calm Partly Cloudy 16 100.9 4 83 1
22:00 NW 4 Clear 16 100.9 6 72 2
21:00 WNW 4 Clear 16 100.9 8 66 2
20:00 NW 3 Sunny 16 100.9 10 57 2
19:00 NW 6 Sunny 16 100.9 10 52 1
18:00 NNW 9 Sunny 16 100.9 11 47 0
17:00 NNW 6 Sunny 16 100.9 11 54 2
16:00 NNW 7 Partly Cloudy 16 101.0 11 55 3
15:00 NNW 7 Mainly Sunny 16 101.0 10 67 4
14:00 NW 3 Mainly Sunny 16 101.0 10 62 3
13:00 NNW 6 Sunny 16 101.0 10 64 4
12:00 N 4 Partly Cloudy 16 101.0 8 79 5
11:00 calm Mostly Cloudy 16 101.0 6 100 6
10:00 NNE 3 Mist 2 101.1 5 100 5
9:00 SE 3 Light Rain 0.2 101.1 4 100 4
8:00 E 3 Light Rain 0.2 101.1 3 100 3
7:00 SSE 2 Light Rain 0.2 101.1 3 100 3
6:00 S 2 Fog 0.2 101.1 2 100 2
5:00 calm Fog 0.2 101.2 1 100 1
4:00 calm Fog 0.6 101.2 1 100 1
3:00 calm Mist 2 101.3 1 100 1
 
Map of Pacific - South Coast marine weather areas Tsawwassen Ferry Terminal South Nomad - 46036 Sentry Shoal - 46131 South Brooks - 46132 Halibut Bank - 46146 South Moresby - 46147 South Hecate Strait - 46185 West Sea Otter - 46204 La Perouse Bank - 46206 East Dellwood - 46207 Discovery Island Esquimalt Harbour Kelp Reefs Malahat Race Rocks Lightstation Saturna Island Sheringham Point University of Victoria Victoria Gonzales Victoria Int'l Airport Ballenas Islands Campbell River Airport Comox Airport Entrance Island Fanny Island Nanaimo Airport Port Hardy Airport Sisters Islets Estevan Point Sartine Island Solander Island Tofino Airport Grief Point Powell River Airport Sechelt Cape St.James Bella Bella Airport Bella Coola Airport Cathedral Point Herbert Island Point Atkinson Sand Heads Lightstation Vancouver Harbour Vancouver Int'l Airport West Vancouver Port Alberni Howe Sound - Pam Rocks Squamish Airport